Lower Paxton, Pennsylvania
Current Conditions -  °F | °C
As of 1:56 PM on Sunday 23 Nov 2014 (Local Time) from KCXY Reporting Station
Clear Clear  
Wind Chill: 55°   Ceiling: Unl
Heat Index: 55°   Visibility: 10mi
Dew Point: 26°   Wind: 7mph
Humidity: 33%   Direction: 100°E
Pressure: 30.1"   Gusts: NA
Location:  40.3615°N, 76.7974°W
Report Text: KCXY 231856Z 10006KT 10SM CLR 13/M03 A3010 RMK AO2 SLP195 T01281033
Loading
Personal Weather Stations






























Interactive Weather Map New forecast layout! Learn more

10-Day Weather Forecast

Advertisements
Track Severe Weather on mobile